sensor_id;sensor_type;location;lat;lon;timestamp;P1;durP1;ratioP1;P2;durP2;ratioP2
12689;SDS011;6409;56.294;14.480;2023-06-04T00:02:04;0.30;;;0.30;;
12689;SDS011;6409;56.294;14.480;2023-06-04T00:04:31;0.20;;;0.20;;
12689;SDS011;6409;56.294;14.480;2023-06-04T00:06:58;0.30;;;0.30;;
12689;SDS011;6409;56.294;14.480;2023-06-04T00:09:27;0.20;;;0.20;;
12689;SDS011;6409;56.294;14.480;2023-06-04T00:11:54;0.20;;;0.20;;
12689;SDS011;6409;56.294;14.480;2023-06-04T00:14:21;0.20;;;0.20;;
12689;SDS011;6409;56.294;14.480;2023-06-04T00:16:48;0.20;;;0.20;;
12689;SDS011;6409;56.294;14.480;2023-06-04T00:19:15;0.20;;;0.20;;
12689;SDS011;6409;56.294;14.480;2023-06-04T00:21:42;0.20;;;0.20;;
12689;SDS011;6409;56.294;14.480;2023-06-04T00:24:09;0.20;;;0.20;;
12689;SDS011;6409;56.294;14.480;2023-06-04T00:26:38;0.20;;;0.20;;
12689;SDS011;6409;56.294;14.480;2023-06-04T00:29:05;0.20;;;0.20;;
12689;SDS011;6409;56.294;14.480;2023-06-04T00:31:32;0.20;;;0.20;;
12689;SDS011;6409;56.294;14.480;2023-06-04T00:34:00;0.20;;;0.20;;
12689;SDS011;6409;56.294;14.480;2023-06-04T00:36:27;0.20;;;0.20;;
12689;SDS011;6409;56.294;14.480;2023-06-04T00:38:54;0.20;;;0.20;;
12689;SDS011;6409;56.294;14.480;2023-06-04T00:41:21;0.20;;;0.20;;
12689;SDS011;6409;56.294;14.480;2023-06-04T00:43:50;0.20;;;0.20;;
12689;SDS011;6409;56.294;14.480;2023-06-04T00:46:21;0.20;;;0.20;;
12689;SDS011;6409;56.294;14.480;2023-06-04T00:48:48;0.30;;;0.30;;
12689;SDS011;6409;56.294;14.480;2023-06-04T00:51:15;0.20;;;0.20;;
12689;SDS011;6409;56.294;14.480;2023-06-04T00:53:43;0.20;;;0.20;;
12689;SDS011;6409;56.294;14.480;2023-06-04T00:56:10;0.20;;;0.20;;
12689;SDS011;6409;56.294;14.480;2023-06-04T00:58:37;0.20;;;0.20;;
12689;SDS011;6409;56.294;14.480;2023-06-04T01:01:07;0.30;;;0.30;;
12689;SDS011;6409;56.294;14.480;2023-06-04T01:03:38;0.20;;;0.20;;
12689;SDS011;6409;56.294;14.480;2023-06-04T01:06:08;0.30;;;0.30;;
12689;SDS011;6409;56.294;14.480;2023-06-04T01:08:39;0.23;;;0.23;;
12689;SDS011;6409;56.294;14.480;2023-06-04T01:11:07;0.20;;;0.20;;
12689;SDS011;6409;56.294;14.480;2023-06-04T01:13:34;0.30;;;0.30;;
12689;SDS011;6409;56.294;14.480;2023-06-04T01:16:01;0.20;;;0.20;;
12689;SDS011;6409;56.294;14.480;2023-06-04T01:18:30;0.30;;;0.30;;
12689;SDS011;6409;56.294;14.480;2023-06-04T01:21:02;0.20;;;0.20;;
12689;SDS011;6409;56.294;14.480;2023-06-04T01:23:33;0.20;;;0.20;;
12689;SDS011;6409;56.294;14.480;2023-06-04T01:26:08;0.20;;;0.20;;
12689;SDS011;6409;56.294;14.480;2023-06-04T01:28:36;0.20;;;0.20;;
12689;SDS011;6409;56.294;14.480;2023-06-04T01:31:04;0.20;;;0.20;;
12689;SDS011;6409;56.294;14.480;2023-06-04T01:33:34;0.20;;;0.20;;
12689;SDS011;6409;56.294;14.480;2023-06-04T01:36:01;0.20;;;0.20;;
12689;SDS011;6409;56.294;14.480;2023-06-04T01:38:28;0.20;;;0.20;;
12689;SDS011;6409;56.294;14.480;2023-06-04T01:40:55;0.20;;;0.20;;
12689;SDS011;6409;56.294;14.480;2023-06-04T01:43:26;0.20;;;0.20;;
12689;SDS011;6409;56.294;14.480;2023-06-04T01:45:53;0.20;;;0.20;;
12689;SDS011;6409;56.294;14.480;2023-06-04T01:48:21;0.27;;;0.27;;
12689;SDS011;6409;56.294;14.480;2023-06-04T01:50:50;0.23;;;0.23;;
12689;SDS011;6409;56.294;14.480;2023-06-04T01:53:17;0.20;;;0.20;;
12689;SDS011;6409;56.294;14.480;2023-06-04T01:55:44;0.20;;;0.20;;
12689;SDS011;6409;56.294;14.480;2023-06-04T01:58:11;0.20;;;0.20;;
12689;SDS011;6409;56.294;14.480;2023-06-04T02:00:37;0.23;;;0.23;;
12689;SDS011;6409;56.294;14.480;2023-06-04T02:03:04;0.20;;;0.20;;
12689;SDS011;6409;56.294;14.480;2023-06-04T02:05:33;0.30;;;0.30;;
12689;SDS011;6409;56.294;14.480;2023-06-04T02:08:02;0.20;;;0.20;;
12689;SDS011;6409;56.294;14.480;2023-06-04T02:10:29;0.20;;;0.20;;
12689;SDS011;6409;56.294;14.480;2023-06-04T02:12:57;0.20;;;0.20;;
12689;SDS011;6409;56.294;14.480;2023-06-04T02:15:25;0.20;;;0.20;;
12689;SDS011;6409;56.294;14.480;2023-06-04T02:17:54;0.30;;;0.30;;
12689;SDS011;6409;56.294;14.480;2023-06-04T02:20:24;0.30;;;0.30;;
12689;SDS011;6409;56.294;14.480;2023-06-04T02:22:51;0.30;;;0.30;;
12689;SDS011;6409;56.294;14.480;2023-06-04T02:25:21;0.30;;;0.30;;
12689;SDS011;6409;56.294;14.480;2023-06-04T02:27:48;0.30;;;0.30;;
12689;SDS011;6409;56.294;14.480;2023-06-04T02:30:15;0.20;;;0.20;;
12689;SDS011;6409;56.294;14.480;2023-06-04T02:32:42;0.20;;;0.20;;
12689;SDS011;6409;56.294;14.480;2023-06-04T02:35:10;0.30;;;0.30;;
12689;SDS011;6409;56.294;14.480;2023-06-04T02:37:37;0.30;;;0.30;;
12689;SDS011;6409;56.294;14.480;2023-06-04T02:40:04;0.20;;;0.20;;
12689;SDS011;6409;56.294;14.480;2023-06-04T02:42:33;0.20;;;0.20;;
12689;SDS011;6409;56.294;14.480;2023-06-04T02:45:00;0.20;;;0.20;;
12689;SDS011;6409;56.294;14.480;2023-06-04T02:47:27;0.20;;;0.20;;
12689;SDS011;6409;56.294;14.480;2023-06-04T02:49:54;0.20;;;0.20;;
12689;SDS011;6409;56.294;14.480;2023-06-04T02:52:21;0.27;;;0.27;;
12689;SDS011;6409;56.294;14.480;2023-06-04T02:54:50;0.30;;;0.30;;
12689;SDS011;6409;56.294;14.480;2023-06-04T02:57:17;0.20;;;0.20;;
12689;SDS011;6409;56.294;14.480;2023-06-04T02:59:45;0.20;;;0.20;;
12689;SDS011;6409;56.294;14.480;2023-06-04T03:02:12;0.20;;;0.20;;
12689;SDS011;6409;56.294;14.480;2023-06-04T03:04:40;0.20;;;0.20;;
12689;SDS011;6409;56.294;14.480;2023-06-04T03:07:07;0.20;;;0.20;;
12689;SDS011;6409;56.294;14.480;2023-06-04T03:09:36;0.20;;;0.20;;
12689;SDS011;6409;56.294;14.480;2023-06-04T03:12:03;0.20;;;0.20;;
12689;SDS011;6409;56.294;14.480;2023-06-04T03:14:31;0.20;;;0.20;;
12689;SDS011;6409;56.294;14.480;2023-06-04T03:17:00;0.20;;;0.20;;
12689;SDS011;6409;56.294;14.480;2023-06-04T03:19:32;0.20;;;0.20;;
12689;SDS011;6409;56.294;14.480;2023-06-04T03:22:00;0.20;;;0.20;;
12689;SDS011;6409;56.294;14.480;2023-06-04T03:24:30;0.20;;;0.20;;
12689;SDS011;6409;56.294;14.480;2023-06-04T03:26:59;0.20;;;0.20;;
12689;SDS011;6409;56.294;14.480;2023-06-04T03:29:26;0.20;;;0.20;;
12689;SDS011;6409;56.294;14.480;2023-06-04T03:31:53;0.20;;;0.20;;
12689;SDS011;6409;56.294;14.480;2023-06-04T03:34:21;0.20;;;0.20;;
12689;SDS011;6409;56.294;14.480;2023-06-04T03:36:50;0.20;;;0.20;;
12689;SDS011;6409;56.294;14.480;2023-06-04T03:39:17;0.20;;;0.20;;
12689;SDS011;6409;56.294;14.480;2023-06-04T03:41:44;0.30;;;0.30;;
12689;SDS011;6409;56.294;14.480;2023-06-04T03:44:12;0.20;;;0.20;;
12689;SDS011;6409;56.294;14.480;2023-06-04T03:46:39;0.20;;;0.20;;
12689;SDS011;6409;56.294;14.480;2023-06-04T03:49:06;0.20;;;0.20;;
12689;SDS011;6409;56.294;14.480;2023-06-04T03:51:34;0.20;;;0.20;;
12689;SDS011;6409;56.294;14.480;2023-06-04T03:54:01;0.20;;;0.20;;
12689;SDS011;6409;56.294;14.480;2023-06-04T03:56:28;0.20;;;0.20;;
12689;SDS011;6409;56.294;14.480;2023-06-04T03:58:55;0.20;;;0.20;;
12689;SDS011;6409;56.294;14.480;2023-06-04T04:01:22;0.20;;;0.20;;
12689;SDS011;6409;56.294;14.480;2023-06-04T04:03:50;0.20;;;0.20;;
12689;SDS011;6409;56.294;14.480;2023-06-04T04:06:17;0.20;;;0.20;;
12689;SDS011;6409;56.294;14.480;2023-06-04T04:08:46;0.20;;;0.20;;
12689;SDS011;6409;56.294;14.480;2023-06-04T04:11:13;0.20;;;0.20;;
12689;SDS011;6409;56.294;14.480;2023-06-04T04:13:41;0.20;;;0.20;;
12689;SDS011;6409;56.294;14.480;2023-06-04T04:16:08;0.20;;;0.20;;
12689;SDS011;6409;56.294;14.480;2023-06-04T04:18:35;0.20;;;0.20;;
12689;SDS011;6409;56.294;14.480;2023-06-04T04:21:03;0.20;;;0.20;;
12689;SDS011;6409;56.294;14.480;2023-06-04T04:23:31;0.20;;;0.20;;
12689;SDS011;6409;56.294;14.480;2023-06-04T04:25:59;0.20;;;0.20;;
12689;SDS011;6409;56.294;14.480;2023-06-04T04:28:26;0.20;;;0.20;;
12689;SDS011;6409;56.294;14.480;2023-06-04T04:30:55;0.20;;;0.20;;
12689;SDS011;6409;56.294;14.480;2023-06-04T04:33:22;0.20;;;0.20;;
12689;SDS011;6409;56.294;14.480;2023-06-04T04:35:50;0.20;;;0.20;;
12689;SDS011;6409;56.294;14.480;2023-06-04T04:38:18;0.20;;;0.20;;
12689;SDS011;6409;56.294;14.480;2023-06-04T04:40:48;0.20;;;0.20;;
12689;SDS011;6409;56.294;14.480;2023-06-04T04:43:19;0.20;;;0.20;;
12689;SDS011;6409;56.294;14.480;2023-06-04T04:45:55;0.20;;;0.20;;
12689;SDS011;6409;56.294;14.480;2023-06-04T04:48:22;0.20;;;0.20;;
12689;SDS011;6409;56.294;14.480;2023-06-04T04:50:49;0.20;;;0.20;;
12689;SDS011;6409;56.294;14.480;2023-06-04T04:53:16;0.20;;;0.20;;
12689;SDS011;6409;56.294;14.480;2023-06-04T04:55:43;0.20;;;0.20;;
12689;SDS011;6409;56.294;14.480;2023-06-04T04:58:10;0.30;;;0.30;;
12689;SDS011;6409;56.294;14.480;2023-06-04T05:00:39;0.30;;;0.30;;
12689;SDS011;6409;56.294;14.480;2023-06-04T05:03:06;0.20;;;0.20;;
12689;SDS011;6409;56.294;14.480;2023-06-04T05:05:33;0.30;;;0.30;;
12689;SDS011;6409;56.294;14.480;2023-06-04T05:08:00;0.30;;;0.30;;
12689;SDS011;6409;56.294;14.480;2023-06-04T05:10:27;0.30;;;0.30;;
12689;SDS011;6409;56.294;14.480;2023-06-04T05:12:54;0.40;;;0.40;;
12689;SDS011;6409;56.294;14.480;2023-06-04T05:15:22;0.30;;;0.30;;
12689;SDS011;6409;56.294;14.480;2023-06-04T05:17:51;0.30;;;0.30;;
12689;SDS011;6409;56.294;14.480;2023-06-04T05:20:18;0.30;;;0.30;;
12689;SDS011;6409;56.294;14.480;2023-06-04T05:22:46;0.40;;;0.40;;
12689;SDS011;6409;56.294;14.480;2023-06-04T05:25:13;0.40;;;0.40;;
12689;SDS011;6409;56.294;14.480;2023-06-04T05:27:40;0.40;;;0.40;;
12689;SDS011;6409;56.294;14.480;2023-06-04T05:30:08;0.40;;;0.40;;
12689;SDS011;6409;56.294;14.480;2023-06-04T05:32:36;0.30;;;0.30;;
12689;SDS011;6409;56.294;14.480;2023-06-04T05:35:07;0.30;;;0.30;;
12689;SDS011;6409;56.294;14.480;2023-06-04T05:37:35;0.30;;;0.30;;
12689;SDS011;6409;56.294;14.480;2023-06-04T05:40:06;0.30;;;0.30;;
12689;SDS011;6409;56.294;14.480;2023-06-04T05:42:34;0.30;;;0.30;;
12689;SDS011;6409;56.294;14.480;2023-06-04T05:45:01;0.30;;;0.30;;
12689;SDS011;6409;56.294;14.480;2023-06-04T05:47:28;0.30;;;0.30;;
12689;SDS011;6409;56.294;14.480;2023-06-04T05:49:56;0.30;;;0.30;;
12689;SDS011;6409;56.294;14.480;2023-06-04T05:52:24;0.30;;;0.30;;
12689;SDS011;6409;56.294;14.480;2023-06-04T05:54:51;0.30;;;0.30;;
12689;SDS011;6409;56.294;14.480;2023-06-04T05:57:19;0.30;;;0.30;;
12689;SDS011;6409;56.294;14.480;2023-06-04T05:59:47;0.30;;;0.30;;
12689;SDS011;6409;56.294;14.480;2023-06-04T06:02:14;0.30;;;0.30;;
12689;SDS011;6409;56.294;14.480;2023-06-04T06:04:41;0.30;;;0.30;;
12689;SDS011;6409;56.294;14.480;2023-06-04T06:07:08;0.30;;;0.30;;
12689;SDS011;6409;56.294;14.480;2023-06-04T06:09:36;0.30;;;0.30;;
12689;SDS011;6409;56.294;14.480;2023-06-04T06:12:03;0.30;;;0.30;;
12689;SDS011;6409;56.294;14.480;2023-06-04T06:14:31;0.30;;;0.30;;
12689;SDS011;6409;56.294;14.480;2023-06-04T06:16:58;0.30;;;0.30;;
12689;SDS011;6409;56.294;14.480;2023-06-04T06:19:25;0.40;;;0.40;;
12689;SDS011;6409;56.294;14.480;2023-06-04T06:21:52;0.30;;;0.30;;
12689;SDS011;6409;56.294;14.480;2023-06-04T06:24:19;0.37;;;0.37;;
12689;SDS011;6409;56.294;14.480;2023-06-04T06:26:47;0.30;;;0.30;;
12689;SDS011;6409;56.294;14.480;2023-06-04T06:29:14;0.30;;;0.30;;
12689;SDS011;6409;56.294;14.480;2023-06-04T06:31:41;0.40;;;0.40;;
12689;SDS011;6409;56.294;14.480;2023-06-04T06:34:08;0.40;;;0.40;;
12689;SDS011;6409;56.294;14.480;2023-06-04T06:36:35;0.40;;;0.40;;
12689;SDS011;6409;56.294;14.480;2023-06-04T06:39:02;0.40;;;0.40;;
12689;SDS011;6409;56.294;14.480;2023-06-04T06:41:29;1.60;;;1.60;;
12689;SDS011;6409;56.294;14.480;2023-06-04T06:43:58;0.40;;;0.40;;
12689;SDS011;6409;56.294;14.480;2023-06-04T06:46:25;0.40;;;0.40;;
12689;SDS011;6409;56.294;14.480;2023-06-04T06:48:52;0.40;;;0.40;;
12689;SDS011;6409;56.294;14.480;2023-06-04T06:51:19;0.40;;;0.40;;
12689;SDS011;6409;56.294;14.480;2023-06-04T06:53:45;0.40;;;0.40;;
12689;SDS011;6409;56.294;14.480;2023-06-04T06:56:13;0.40;;;0.40;;
12689;SDS011;6409;56.294;14.480;2023-06-04T06:58:41;0.40;;;0.40;;
12689;SDS011;6409;56.294;14.480;2023-06-04T07:01:09;0.40;;;0.40;;
12689;SDS011;6409;56.294;14.480;2023-06-04T07:03:36;0.50;;;0.50;;
12689;SDS011;6409;56.294;14.480;2023-06-04T07:06:04;0.50;;;0.50;;
12689;SDS011;6409;56.294;14.480;2023-06-04T07:08:31;0.50;;;0.50;;
12689;SDS011;6409;56.294;14.480;2023-06-04T07:10:58;0.40;;;0.40;;
12689;SDS011;6409;56.294;14.480;2023-06-04T07:13:26;0.50;;;0.50;;
12689;SDS011;6409;56.294;14.480;2023-06-04T07:15:53;0.50;;;0.50;;
12689;SDS011;6409;56.294;14.480;2023-06-04T07:18:21;0.40;;;0.40;;
12689;SDS011;6409;56.294;14.480;2023-06-04T07:20:48;0.50;;;0.50;;
12689;SDS011;6409;56.294;14.480;2023-06-04T07:23:17;0.40;;;0.40;;
12689;SDS011;6409;56.294;14.480;2023-06-04T07:25:45;0.50;;;0.50;;
12689;SDS011;6409;56.294;14.480;2023-06-04T07:28:12;0.43;;;0.43;;
12689;SDS011;6409;56.294;14.480;2023-06-04T07:30:40;0.50;;;0.50;;
12689;SDS011;6409;56.294;14.480;2023-06-04T07:33:08;0.50;;;0.50;;
12689;SDS011;6409;56.294;14.480;2023-06-04T07:35:36;0.50;;;0.50;;
12689;SDS011;6409;56.294;14.480;2023-06-04T07:38:03;0.50;;;0.50;;
12689;SDS011;6409;56.294;14.480;2023-06-04T07:40:30;0.50;;;0.50;;
12689;SDS011;6409;56.294;14.480;2023-06-04T07:42:57;0.60;;;0.60;;
12689;SDS011;6409;56.294;14.480;2023-06-04T07:45:24;0.60;;;0.60;;
12689;SDS011;6409;56.294;14.480;2023-06-04T07:47:51;0.60;;;0.60;;
12689;SDS011;6409;56.294;14.480;2023-06-04T07:50:18;0.70;;;0.70;;
12689;SDS011;6409;56.294;14.480;2023-06-04T07:52:46;0.60;;;0.60;;
12689;SDS011;6409;56.294;14.480;2023-06-04T07:55:13;0.63;;;0.63;;
12689;SDS011;6409;56.294;14.480;2023-06-04T07:57:40;0.60;;;0.60;;
12689;SDS011;6409;56.294;14.480;2023-06-04T08:00:07;0.60;;;0.60;;
12689;SDS011;6409;56.294;14.480;2023-06-04T08:02:36;0.70;;;0.70;;
12689;SDS011;6409;56.294;14.480;2023-06-04T08:05:03;0.90;;;0.90;;
12689;SDS011;6409;56.294;14.480;2023-06-04T08:07:30;0.90;;;0.90;;
12689;SDS011;6409;56.294;14.480;2023-06-04T08:09:59;0.90;;;0.90;;
12689;SDS011;6409;56.294;14.480;2023-06-04T08:12:26;0.80;;;0.80;;
12689;SDS011;6409;56.294;14.480;2023-06-04T08:14:52;0.90;;;0.90;;
12689;SDS011;6409;56.294;14.480;2023-06-04T08:17:21;0.90;;;0.90;;
12689;SDS011;6409;56.294;14.480;2023-06-04T08:19:48;0.90;;;0.90;;
12689;SDS011;6409;56.294;14.480;2023-06-04T08:22:15;0.93;;;0.93;;
12689;SDS011;6409;56.294;14.480;2023-06-04T08:24:42;1.00;;;1.00;;
12689;SDS011;6409;56.294;14.480;2023-06-04T08:27:11;0.70;;;0.70;;
12689;SDS011;6409;56.294;14.480;2023-06-04T08:29:38;0.70;;;0.70;;
12689;SDS011;6409;56.294;14.480;2023-06-04T08:32:06;0.80;;;0.80;;
12689;SDS011;6409;56.294;14.480;2023-06-04T08:34:33;0.70;;;0.70;;
12689;SDS011;6409;56.294;14.480;2023-06-04T08:37:00;0.70;;;0.70;;
12689;SDS011;6409;56.294;14.480;2023-06-04T08:39:27;0.70;;;0.70;;
12689;SDS011;6409;56.294;14.480;2023-06-04T08:41:55;0.70;;;0.70;;
12689;SDS011;6409;56.294;14.480;2023-06-04T08:44:26;0.70;;;0.70;;
12689;SDS011;6409;56.294;14.480;2023-06-04T08:46:53;0.70;;;0.70;;
12689;SDS011;6409;56.294;14.480;2023-06-04T08:49:28;0.70;;;0.70;;
12689;SDS011;6409;56.294;14.480;2023-06-04T08:51:56;0.70;;;0.70;;
12689;SDS011;6409;56.294;14.480;2023-06-04T08:54:23;0.80;;;0.80;;
12689;SDS011;6409;56.294;14.480;2023-06-04T08:56:51;0.80;;;0.80;;
12689;SDS011;6409;56.294;14.480;2023-06-04T08:59:18;0.80;;;0.80;;
12689;SDS011;6409;56.294;14.480;2023-06-04T09:01:47;0.80;;;0.80;;
12689;SDS011;6409;56.294;14.480;2023-06-04T09:04:14;0.80;;;0.80;;
12689;SDS011;6409;56.294;14.480;2023-06-04T09:06:41;0.80;;;0.80;;
12689;SDS011;6409;56.294;14.480;2023-06-04T09:09:09;0.80;;;0.80;;
12689;SDS011;6409;56.294;14.480;2023-06-04T09:11:39;0.80;;;0.80;;
12689;SDS011;6409;56.294;14.480;2023-06-04T09:14:08;0.80;;;0.80;;
12689;SDS011;6409;56.294;14.480;2023-06-04T09:16:47;0.80;;;0.80;;
12689;SDS011;6409;56.294;14.480;2023-06-04T09:19:14;0.90;;;0.90;;
12689;SDS011;6409;56.294;14.480;2023-06-04T09:21:51;0.80;;;0.80;;
12689;SDS011;6409;56.294;14.480;2023-06-04T09:24:19;0.80;;;0.80;;
12689;SDS011;6409;56.294;14.480;2023-06-04T09:26:47;0.90;;;0.90;;
12689;SDS011;6409;56.294;14.480;2023-06-04T09:29:14;0.90;;;0.90;;
12689;SDS011;6409;56.294;14.480;2023-06-04T09:31:44;0.90;;;0.90;;
12689;SDS011;6409;56.294;14.480;2023-06-04T09:34:13;1.00;;;1.00;;
12689;SDS011;6409;56.294;14.480;2023-06-04T09:36:40;0.90;;;0.90;;
12689;SDS011;6409;56.294;14.480;2023-06-04T09:39:14;0.90;;;0.90;;
12689;SDS011;6409;56.294;14.480;2023-06-04T09:41:41;0.90;;;0.90;;
12689;SDS011;6409;56.294;14.480;2023-06-04T09:44:08;0.90;;;0.90;;
12689;SDS011;6409;56.294;14.480;2023-06-04T09:46:36;0.90;;;0.90;;
12689;SDS011;6409;56.294;14.480;2023-06-04T09:49:03;0.90;;;0.90;;
12689;SDS011;6409;56.294;14.480;2023-06-04T09:51:32;0.90;;;0.90;;
12689;SDS011;6409;56.294;14.480;2023-06-04T09:54:00;0.90;;;0.90;;
12689;SDS011;6409;56.294;14.480;2023-06-04T09:56:27;0.90;;;0.90;;
12689;SDS011;6409;56.294;14.480;2023-06-04T09:58:54;0.90;;;0.90;;
12689;SDS011;6409;56.294;14.480;2023-06-04T10:01:23;0.90;;;0.90;;
12689;SDS011;6409;56.294;14.480;2023-06-04T10:03:51;0.90;;;0.90;;
12689;SDS011;6409;56.294;14.480;2023-06-04T10:06:18;1.00;;;1.00;;
12689;SDS011;6409;56.294;14.480;2023-06-04T10:08:49;1.00;;;1.00;;
12689;SDS011;6409;56.294;14.480;2023-06-04T10:11:17;0.90;;;0.90;;
12689;SDS011;6409;56.294;14.480;2023-06-04T10:13:48;1.00;;;1.00;;
12689;SDS011;6409;56.294;14.480;2023-06-04T10:16:18;1.00;;;1.00;;
12689;SDS011;6409;56.294;14.480;2023-06-04T10:18:46;0.90;;;0.90;;
12689;SDS011;6409;56.294;14.480;2023-06-04T10:21:14;0.90;;;0.90;;
12689;SDS011;6409;56.294;14.480;2023-06-04T10:23:43;0.90;;;0.90;;
12689;SDS011;6409;56.294;14.480;2023-06-04T10:26:13;1.40;;;1.40;;
12689;SDS011;6409;56.294;14.480;2023-06-04T10:28:41;0.90;;;0.90;;
12689;SDS011;6409;56.294;14.480;2023-06-04T10:31:08;0.90;;;0.90;;
12689;SDS011;6409;56.294;14.480;2023-06-04T10:33:35;0.90;;;0.90;;
12689;SDS011;6409;56.294;14.480;2023-06-04T10:36:15;0.90;;;0.90;;
12689;SDS011;6409;56.294;14.480;2023-06-04T10:38:44;1.00;;;1.00;;
12689;SDS011;6409;56.294;14.480;2023-06-04T10:41:14;0.60;;;0.60;;
12689;SDS011;6409;56.294;14.480;2023-06-04T10:43:42;1.00;;;1.00;;
12689;SDS011;6409;56.294;14.480;2023-06-04T10:46:12;0.80;;;0.80;;
12689;SDS011;6409;56.294;14.480;2023-06-04T10:48:46;0.60;;;0.60;;
12689;SDS011;6409;56.294;14.480;2023-06-04T10:51:16;0.60;;;0.60;;
12689;SDS011;6409;56.294;14.480;2023-06-04T10:53:43;1.10;;;1.10;;
12689;SDS011;6409;56.294;14.480;2023-06-04T10:56:10;0.90;;;0.90;;
12689;SDS011;6409;56.294;14.480;2023-06-04T10:58:38;0.90;;;0.90;;
12689;SDS011;6409;56.294;14.480;2023-06-04T11:01:05;0.60;;;0.60;;
12689;SDS011;6409;56.294;14.480;2023-06-04T11:03:35;0.80;;;0.80;;
12689;SDS011;6409;56.294;14.480;2023-06-04T11:06:13;1.10;;;1.10;;
12689;SDS011;6409;56.294;14.480;2023-06-04T11:08:41;0.90;;;0.90;;
12689;SDS011;6409;56.294;14.480;2023-06-04T11:11:11;1.10;;;1.10;;
12689;SDS011;6409;56.294;14.480;2023-06-04T11:13:40;1.17;;;1.17;;
12689;SDS011;6409;56.294;14.480;2023-06-04T11:16:16;1.10;;;1.10;;
12689;SDS011;6409;56.294;14.480;2023-06-04T11:18:53;0.50;;;0.50;;
12689;SDS011;6409;56.294;14.480;2023-06-04T11:21:20;2.37;;;2.23;;
12689;SDS011;6409;56.294;14.480;2023-06-04T11:23:48;0.90;;;0.90;;
12689;SDS011;6409;56.294;14.480;2023-06-04T11:26:14;0.90;;;0.90;;
12689;SDS011;6409;56.294;14.480;2023-06-04T11:28:43;0.90;;;0.90;;
12689;SDS011;6409;56.294;14.480;2023-06-04T11:31:15;0.90;;;0.90;;
12689;SDS011;6409;56.294;14.480;2023-06-04T11:33:42;1.27;;;1.27;;
12689;SDS011;6409;56.294;14.480;2023-06-04T11:36:09;0.60;;;0.60;;
12689;SDS011;6409;56.294;14.480;2023-06-04T11:38:36;0.70;;;0.70;;
12689;SDS011;6409;56.294;14.480;2023-06-04T11:41:03;0.90;;;0.90;;
12689;SDS011;6409;56.294;14.480;2023-06-04T11:43:32;0.50;;;0.50;;
12689;SDS011;6409;56.294;14.480;2023-06-04T11:46:04;0.97;;;0.97;;
12689;SDS011;6409;56.294;14.480;2023-06-04T11:48:32;0.90;;;0.90;;
12689;SDS011;6409;56.294;14.480;2023-06-04T11:51:04;0.90;;;0.90;;
12689;SDS011;6409;56.294;14.480;2023-06-04T11:53:33;0.83;;;0.83;;
12689;SDS011;6409;56.294;14.480;2023-06-04T11:56:02;0.90;;;0.90;;
12689;SDS011;6409;56.294;14.480;2023-06-04T11:58:29;0.90;;;0.90;;
12689;SDS011;6409;56.294;14.480;2023-06-04T12:00:57;0.90;;;0.90;;
12689;SDS011;6409;56.294;14.480;2023-06-04T12:03:35;0.90;;;0.90;;
12689;SDS011;6409;56.294;14.480;2023-06-04T12:06:10;0.90;;;0.90;;
12689;SDS011;6409;56.294;14.480;2023-06-04T12:08:44;0.90;;;0.90;;
12689;SDS011;6409;56.294;14.480;2023-06-04T12:11:23;0.90;;;0.90;;
12689;SDS011;6409;56.294;14.480;2023-06-04T12:13:51;0.90;;;0.90;;
12689;SDS011;6409;56.294;14.480;2023-06-04T12:16:19;0.90;;;0.90;;
12689;SDS011;6409;56.294;14.480;2023-06-04T12:18:47;0.90;;;0.90;;
12689;SDS011;6409;56.294;14.480;2023-06-04T12:21:21;0.90;;;0.90;;
12689;SDS011;6409;56.294;14.480;2023-06-04T12:23:52;0.90;;;0.90;;
12689;SDS011;6409;56.294;14.480;2023-06-04T12:26:21;0.90;;;0.90;;
12689;SDS011;6409;56.294;14.480;2023-06-04T12:28:58;0.80;;;0.80;;
12689;SDS011;6409;56.294;14.480;2023-06-04T12:31:26;0.90;;;0.90;;
12689;SDS011;6409;56.294;14.480;2023-06-04T12:33:58;0.90;;;0.90;;
12689;SDS011;6409;56.294;14.480;2023-06-04T12:36:26;0.90;;;0.90;;
12689;SDS011;6409;56.294;14.480;2023-06-04T12:38:58;0.90;;;0.90;;
12689;SDS011;6409;56.294;14.480;2023-06-04T12:41:26;0.90;;;0.90;;
12689;SDS011;6409;56.294;14.480;2023-06-04T12:43:53;0.90;;;0.90;;
12689;SDS011;6409;56.294;14.480;2023-06-04T12:46:20;0.90;;;0.90;;
12689;SDS011;6409;56.294;14.480;2023-06-04T12:48:48;0.90;;;0.90;;
12689;SDS011;6409;56.294;14.480;2023-06-04T12:51:17;0.90;;;0.90;;
12689;SDS011;6409;56.294;14.480;2023-06-04T12:53:44;0.90;;;0.90;;
12689;SDS011;6409;56.294;14.480;2023-06-04T12:56:11;0.90;;;0.90;;
12689;SDS011;6409;56.294;14.480;2023-06-04T12:58:38;0.90;;;0.90;;
12689;SDS011;6409;56.294;14.480;2023-06-04T13:01:05;0.90;;;0.90;;
12689;SDS011;6409;56.294;14.480;2023-06-04T13:03:32;0.90;;;0.90;;
12689;SDS011;6409;56.294;14.480;2023-06-04T13:06:00;0.90;;;0.90;;
12689;SDS011;6409;56.294;14.480;2023-06-04T13:08:28;1.00;;;1.00;;
12689;SDS011;6409;56.294;14.480;2023-06-04T13:10:55;0.97;;;0.97;;
12689;SDS011;6409;56.294;14.480;2023-06-04T13:13:22;0.90;;;0.90;;
12689;SDS011;6409;56.294;14.480;2023-06-04T13:15:49;0.80;;;0.80;;
12689;SDS011;6409;56.294;14.480;2023-06-04T13:18:16;0.80;;;0.80;;
12689;SDS011;6409;56.294;14.480;2023-06-04T13:20:46;0.90;;;0.90;;
12689;SDS011;6409;56.294;14.480;2023-06-04T13:23:15;0.90;;;0.90;;
12689;SDS011;6409;56.294;14.480;2023-06-04T13:25:43;0.90;;;0.90;;
12689;SDS011;6409;56.294;14.480;2023-06-04T13:28:10;0.90;;;0.90;;
12689;SDS011;6409;56.294;14.480;2023-06-04T13:30:37;0.90;;;0.90;;
12689;SDS011;6409;56.294;14.480;2023-06-04T13:33:04;0.90;;;0.90;;
12689;SDS011;6409;56.294;14.480;2023-06-04T13:35:31;0.90;;;0.90;;
12689;SDS011;6409;56.294;14.480;2023-06-04T13:37:58;0.90;;;0.90;;
12689;SDS011;6409;56.294;14.480;2023-06-04T13:40:25;0.90;;;0.90;;
12689;SDS011;6409;56.294;14.480;2023-06-04T13:42:54;0.90;;;0.90;;
12689;SDS011;6409;56.294;14.480;2023-06-04T13:45:20;1.00;;;1.00;;
12689;SDS011;6409;56.294;14.480;2023-06-04T13:47:47;0.90;;;0.90;;
12689;SDS011;6409;56.294;14.480;2023-06-04T13:50:15;0.90;;;0.90;;
12689;SDS011;6409;56.294;14.480;2023-06-04T13:52:42;0.90;;;0.90;;
12689;SDS011;6409;56.294;14.480;2023-06-04T13:55:11;1.10;;;1.10;;
12689;SDS011;6409;56.294;14.480;2023-06-04T13:57:38;1.10;;;1.10;;
12689;SDS011;6409;56.294;14.480;2023-06-04T14:00:08;1.03;;;1.03;;
12689;SDS011;6409;56.294;14.480;2023-06-04T14:02:38;1.10;;;1.10;;
12689;SDS011;6409;56.294;14.480;2023-06-04T14:05:05;1.10;;;1.10;;
12689;SDS011;6409;56.294;14.480;2023-06-04T14:07:33;1.20;;;1.20;;
12689;SDS011;6409;56.294;14.480;2023-06-04T14:10:00;1.30;;;1.30;;
12689;SDS011;6409;56.294;14.480;2023-06-04T14:12:27;1.20;;;1.20;;
12689;SDS011;6409;56.294;14.480;2023-06-04T14:14:54;1.40;;;1.40;;
12689;SDS011;6409;56.294;14.480;2023-06-04T14:17:22;0.90;;;0.90;;
12689;SDS011;6409;56.294;14.480;2023-06-04T14:19:49;0.90;;;0.90;;
12689;SDS011;6409;56.294;14.480;2023-06-04T14:22:16;0.90;;;0.90;;
12689;SDS011;6409;56.294;14.480;2023-06-04T14:24:43;1.00;;;1.00;;
12689;SDS011;6409;56.294;14.480;2023-06-04T14:27:10;1.00;;;1.00;;
12689;SDS011;6409;56.294;14.480;2023-06-04T14:29:38;1.00;;;1.00;;
12689;SDS011;6409;56.294;14.480;2023-06-04T14:32:05;1.00;;;1.00;;
12689;SDS011;6409;56.294;14.480;2023-06-04T14:34:33;1.00;;;1.00;;
12689;SDS011;6409;56.294;14.480;2023-06-04T14:37:01;1.00;;;1.00;;
12689;SDS011;6409;56.294;14.480;2023-06-04T14:39:27;0.90;;;0.90;;
12689;SDS011;6409;56.294;14.480;2023-06-04T14:41:54;1.00;;;1.00;;
12689;SDS011;6409;56.294;14.480;2023-06-04T14:44:21;1.00;;;1.00;;
12689;SDS011;6409;56.294;14.480;2023-06-04T14:46:49;1.00;;;1.00;;
12689;SDS011;6409;56.294;14.480;2023-06-04T14:49:16;1.00;;;1.00;;
12689;SDS011;6409;56.294;14.480;2023-06-04T14:51:45;1.00;;;1.00;;
12689;SDS011;6409;56.294;14.480;2023-06-04T14:54:12;1.00;;;1.00;;